sensor_id;sensor_type;location;lat;lon;timestamp;pressure;altitude;pressure_sealevel;temperature;humidity
75298;BME280;63896;45.990;18.688;2023-06-22T00:00:16;100850.47;;;22.96;96.71
75298;BME280;63896;45.990;18.688;2023-06-22T00:03:21;100840.16;;;22.98;96.58
75298;BME280;63896;45.990;18.688;2023-06-22T00:06:24;100835.94;;;22.87;97.11
75298;BME280;63896;45.990;18.688;2023-06-22T00:09:27;100826.50;;;22.84;97.96
75298;BME280;63896;45.990;18.688;2023-06-22T00:12:29;100825.50;;;22.75;98.76
75298;BME280;63896;45.990;18.688;2023-06-22T00:15:33;100813.06;;;22.74;99.13
75298;BME280;63896;45.990;18.688;2023-06-22T00:18:36;100803.91;;;22.65;100.00
75298;BME280;63896;45.990;18.688;2023-06-22T00:21:39;100797.69;;;22.64;100.00
75298;BME280;63896;45.990;18.688;2023-06-22T00:24:42;100793.34;;;22.68;100.00
75298;BME280;63896;45.990;18.688;2023-06-22T00:27:45;100773.88;;;22.66;100.00
75298;BME280;63896;45.990;18.688;2023-06-22T00:30:49;100780.94;;;22.62;100.00
75298;BME280;63896;45.990;18.688;2023-06-22T00:33:53;100791.72;;;22.67;100.00
75298;BME280;63896;45.990;18.688;2023-06-22T00:36:56;100789.56;;;22.64;100.00
75298;BME280;63896;45.990;18.688;2023-06-22T00:39:59;100789.00;;;22.67;100.00
75298;BME280;63896;45.990;18.688;2023-06-22T00:43:02;100790.63;;;22.73;100.00
75298;BME280;63896;45.990;18.688;2023-06-22T00:46:05;100812.84;;;22.70;100.00
75298;BME280;63896;45.990;18.688;2023-06-22T00:49:08;100821.72;;;22.71;100.00
75298;BME280;63896;45.990;18.688;2023-06-22T00:52:11;100814.47;;;22.66;100.00
75298;BME280;63896;45.990;18.688;2023-06-22T00:55:16;100814.22;;;22.63;100.00
75298;BME280;63896;45.990;18.688;2023-06-22T00:58:21;100822.38;;;22.58;100.00
75298;BME280;63896;45.990;18.688;2023-06-22T01:01:24;100836.50;;;22.50;100.00
75298;BME280;63896;45.990;18.688;2023-06-22T01:04:35;100847.88;;;22.47;100.00
75298;BME280;63896;45.990;18.688;2023-06-22T01:07:43;100839.53;;;22.43;100.00
75298;BME280;63896;45.990;18.688;2023-06-22T01:11:01;100837.66;;;22.39;100.00
75298;BME280;63896;45.990;18.688;2023-06-22T01:14:20;100828.75;;;22.33;100.00
75298;BME280;63896;45.990;18.688;2023-06-22T01:17:26;100822.31;;;22.29;100.00
75298;BME280;63896;45.990;18.688;2023-06-22T01:20:30;100837.19;;;22.26;100.00
75298;BME280;63896;45.990;18.688;2023-06-22T01:24:22;100842.06;;;22.24;100.00
75298;BME280;63896;45.990;18.688;2023-06-22T01:27:33;100856.09;;;22.31;100.00
75298;BME280;63896;45.990;18.688;2023-06-22T01:30:39;100855.56;;;22.29;100.00
75298;BME280;63896;45.990;18.688;2023-06-22T01:33:45;100878.56;;;22.27;100.00
75298;BME280;63896;45.990;18.688;2023-06-22T01:36:50;100879.66;;;22.26;100.00
75298;BME280;63896;45.990;18.688;2023-06-22T01:39:55;100887.75;;;22.26;100.00
75298;BME280;63896;45.990;18.688;2023-06-22T01:43:00;100886.44;;;22.23;100.00
75298;BME280;63896;45.990;18.688;2023-06-22T01:46:03;100886.44;;;22.23;100.00
75298;BME280;63896;45.990;18.688;2023-06-22T01:49:07;100881.03;;;22.23;100.00
75298;BME280;63896;45.990;18.688;2023-06-22T01:52:11;100874.31;;;22.16;100.00
75298;BME280;63896;45.990;18.688;2023-06-22T01:55:14;100878.66;;;22.12;100.00
75298;BME280;63896;45.990;18.688;2023-06-22T01:58:17;100889.72;;;22.10;100.00
75298;BME280;63896;45.990;18.688;2023-06-22T02:01:30;100894.88;;;22.12;100.00
75298;BME280;63896;45.990;18.688;2023-06-22T02:05:05;100915.13;;;22.14;100.00
75298;BME280;63896;45.990;18.688;2023-06-22T02:08:11;100901.34;;;22.11;100.00
75298;BME280;63896;45.990;18.688;2023-06-22T02:11:19;100911.91;;;22.12;100.00
75298;BME280;63896;45.990;18.688;2023-06-22T02:14:25;100902.19;;;22.06;100.00
75298;BME280;63896;45.990;18.688;2023-06-22T02:17:29;100907.56;;;22.11;100.00
75298;BME280;63896;45.990;18.688;2023-06-22T02:20:37;100909.47;;;22.06;100.00
75298;BME280;63896;45.990;18.688;2023-06-22T02:23:40;100904.88;;;22.06;100.00
75298;BME280;63896;45.990;18.688;2023-06-22T02:26:43;100909.22;;;22.02;100.00
75298;BME280;63896;45.990;18.688;2023-06-22T02:29:48;100904.06;;;22.11;100.00
75298;BME280;63896;45.990;18.688;2023-06-22T02:32:50;100901.13;;;22.02;100.00
75298;BME280;63896;45.990;18.688;2023-06-22T02:36:02;100901.16;;;21.97;100.00
75298;BME280;63896;45.990;18.688;2023-06-22T02:39:07;100903.88;;;21.92;100.00
75298;BME280;63896;45.990;18.688;2023-06-22T02:42:11;100908.44;;;21.86;100.00
75298;BME280;63896;45.990;18.688;2023-06-22T02:45:14;100895.25;;;21.80;100.00
75298;BME280;63896;45.990;18.688;2023-06-22T02:48:18;100892.81;;;21.78;100.00
75298;BME280;63896;45.990;18.688;2023-06-22T02:51:21;100900.38;;;21.81;100.00
75298;BME280;63896;45.990;18.688;2023-06-22T02:54:24;100903.91;;;21.77;100.00
75298;BME280;63896;45.990;18.688;2023-06-22T02:57:29;100897.94;;;21.75;100.00
75298;BME280;63896;45.990;18.688;2023-06-22T03:00:32;100893.09;;;21.77;100.00
75298;BME280;63896;45.990;18.688;2023-06-22T03:03:35;100902.22;;;21.86;100.00
75298;BME280;63896;45.990;18.688;2023-06-22T03:06:38;100902.00;;;21.93;100.00
75298;BME280;63896;45.990;18.688;2023-06-22T03:09:43;100895.50;;;21.89;100.00
75298;BME280;63896;45.990;18.688;2023-06-22T03:12:46;100903.84;;;21.87;100.00
75298;BME280;63896;45.990;18.688;2023-06-22T03:15:49;100909.81;;;21.89;100.00
75298;BME280;63896;45.990;18.688;2023-06-22T03:18:52;100923.88;;;21.91;100.00
75298;BME280;63896;45.990;18.688;2023-06-22T03:21:56;100927.91;;;21.94;100.00
75298;BME280;63896;45.990;18.688;2023-06-22T03:25:00;100930.91;;;21.92;100.00
75298;BME280;63896;45.990;18.688;2023-06-22T03:28:03;100929.25;;;21.96;100.00
75298;BME280;63896;45.990;18.688;2023-06-22T03:31:06;100928.69;;;22.04;100.00
75298;BME280;63896;45.990;18.688;2023-06-22T03:34:10;100928.94;;;22.08;100.00
75298;BME280;63896;45.990;18.688;2023-06-22T03:37:14;100940.53;;;22.13;100.00
75298;BME280;63896;45.990;18.688;2023-06-22T03:40:17;100942.38;;;22.23;100.00
75298;BME280;63896;45.990;18.688;2023-06-22T03:43:20;100946.16;;;22.27;100.00
75298;BME280;63896;45.990;18.688;2023-06-22T03:46:23;100939.38;;;22.29;100.00
75298;BME280;63896;45.990;18.688;2023-06-22T03:49:27;100931.81;;;22.31;100.00
75298;BME280;63896;45.990;18.688;2023-06-22T03:52:29;100936.66;;;22.29;100.00
75298;BME280;63896;45.990;18.688;2023-06-22T03:55:34;100940.16;;;22.35;100.00
75298;BME280;63896;45.990;18.688;2023-06-22T03:58:36;100940.38;;;22.44;100.00
75298;BME280;63896;45.990;18.688;2023-06-22T04:01:45;100933.94;;;22.40;100.00
75298;BME280;63896;45.990;18.688;2023-06-22T04:04:49;100938.03;;;22.27;100.00
75298;BME280;63896;45.990;18.688;2023-06-22T04:07:51;100929.13;;;22.26;100.00
75298;BME280;63896;45.990;18.688;2023-06-22T04:10:54;100927.50;;;22.25;100.00
75298;BME280;63896;45.990;18.688;2023-06-22T04:13:57;100932.94;;;22.20;100.00
75298;BME280;63896;45.990;18.688;2023-06-22T04:17:00;100936.97;;;22.23;100.00
75298;BME280;63896;45.990;18.688;2023-06-22T04:20:03;100934.53;;;22.26;100.00
75298;BME280;63896;45.990;18.688;2023-06-22T04:23:06;100942.38;;;22.28;100.00
75298;BME280;63896;45.990;18.688;2023-06-22T04:26:09;100939.38;;;22.29;100.00
75298;BME280;63896;45.990;18.688;2023-06-22T04:29:12;100946.59;;;22.44;99.10
75298;BME280;63896;45.990;18.688;2023-06-22T04:32:15;100950.25;;;22.63;98.26
75298;BME280;63896;45.990;18.688;2023-06-22T04:35:18;100956.72;;;22.67;97.94
75298;BME280;63896;45.990;18.688;2023-06-22T04:38:21;100956.72;;;22.67;97.58
75298;BME280;63896;45.990;18.688;2023-06-22T04:41:24;100946.06;;;22.86;96.35
75298;BME280;63896;45.990;18.688;2023-06-22T04:44:27;100946.78;;;23.02;94.55
75298;BME280;63896;45.990;18.688;2023-06-22T04:47:30;100939.56;;;22.92;94.26
75298;BME280;63896;45.990;18.688;2023-06-22T04:50:33;100946.22;;;23.05;93.90
75298;BME280;63896;45.990;18.688;2023-06-22T04:53:35;100944.47;;;23.19;93.12
75298;BME280;63896;45.990;18.688;2023-06-22T04:56:38;100940.53;;;23.35;92.15
75298;BME280;63896;45.990;18.688;2023-06-22T04:59:43;100942.50;;;23.58;90.68
75298;BME280;63896;45.990;18.688;2023-06-22T05:02:46;100935.88;;;23.41;90.26
75298;BME280;63896;45.990;18.688;2023-06-22T05:05:49;100944.59;;;23.33;90.54
75298;BME280;63896;45.990;18.688;2023-06-22T05:08:56;100938.88;;;23.39;90.97
75298;BME280;63896;45.990;18.688;2023-06-22T05:12:02;100944.19;;;23.54;88.62
75298;BME280;63896;45.990;18.688;2023-06-22T05:15:10;100940.25;;;23.65;87.21
75298;BME280;63896;45.990;18.688;2023-06-22T05:18:13;100945.47;;;23.86;86.53
75298;BME280;63896;45.990;18.688;2023-06-22T05:21:16;100945.47;;;24.09;85.22
75298;BME280;63896;45.990;18.688;2023-06-22T05:24:18;100954.78;;;23.98;85.59
75298;BME280;63896;45.990;18.688;2023-06-22T05:27:21;100958.53;;;24.02;85.52
75298;BME280;63896;45.990;18.688;2023-06-22T05:30:24;100952.16;;;24.17;85.44
75298;BME280;63896;45.990;18.688;2023-06-22T05:33:27;100959.78;;;24.15;84.73
75298;BME280;63896;45.990;18.688;2023-06-22T05:36:30;100955.56;;;24.28;83.84
75298;BME280;63896;45.990;18.688;2023-06-22T05:39:32;100959.97;;;24.61;82.67
75298;BME280;63896;45.990;18.688;2023-06-22T05:42:35;100962.47;;;24.95;81.39
75298;BME280;63896;45.990;18.688;2023-06-22T05:45:38;100960.72;;;25.36;79.45
75298;BME280;63896;45.990;18.688;2023-06-22T05:48:41;100962.69;;;25.31;79.88
75298;BME280;63896;45.990;18.688;2023-06-22T05:51:44;100960.44;;;25.51;78.36
75298;BME280;63896;45.990;18.688;2023-06-22T05:54:46;100956.97;;;25.78;76.69
75298;BME280;63896;45.990;18.688;2023-06-22T05:57:52;100959.16;;;26.03;75.48
75298;BME280;63896;45.990;18.688;2023-06-22T06:00:55;100951.53;;;26.33;76.39
75298;BME280;63896;45.990;18.688;2023-06-22T06:03:59;100958.66;;;26.78;71.90
75298;BME280;63896;45.990;18.688;2023-06-22T06:07:04;100963.41;;;26.37;73.11
75298;BME280;63896;45.990;18.688;2023-06-22T06:10:20;100962.69;;;26.31;73.39
75298;BME280;63896;45.990;18.688;2023-06-22T06:13:24;100960.09;;;26.62;72.31
75298;BME280;63896;45.990;18.688;2023-06-22T06:16:30;100954.31;;;26.91;70.99
75298;BME280;63896;45.990;18.688;2023-06-22T06:19:33;100961.47;;;27.09;69.86
75298;BME280;63896;45.990;18.688;2023-06-22T06:22:36;100961.53;;;26.95;70.38
75298;BME280;63896;45.990;18.688;2023-06-22T06:29:32;100970.09;;;27.86;68.72
75298;BME280;63896;45.990;18.688;2023-06-22T06:32:35;100971.81;;;28.13;66.66
75298;BME280;63896;45.990;18.688;2023-06-22T06:35:38;100973.75;;;28.21;65.41
75298;BME280;63896;45.990;18.688;2023-06-22T06:38:40;100967.72;;;28.59;63.74
75298;BME280;63896;45.990;18.688;2023-06-22T06:41:43;100962.09;;;28.64;64.32
75298;BME280;63896;45.990;18.688;2023-06-22T06:44:50;100964.84;;;28.81;63.45
75298;BME280;63896;45.990;18.688;2023-06-22T06:48:01;100964.19;;;29.01;62.99
75298;BME280;63896;45.990;18.688;2023-06-22T06:51:26;100964.81;;;28.64;64.18
75298;BME280;63896;45.990;18.688;2023-06-22T06:54:29;100967.19;;;28.22;64.85
75298;BME280;63896;45.990;18.688;2023-06-22T06:57:32;100964.03;;;28.46;64.60
75298;BME280;63896;45.990;18.688;2023-06-22T07:00:36;100960.97;;;28.65;63.56
75298;BME280;63896;45.990;18.688;2023-06-22T07:03:39;100953.22;;;27.84;66.15
75298;BME280;63896;45.990;18.688;2023-06-22T07:06:43;100955.38;;;28.96;62.84
75298;BME280;63896;45.990;18.688;2023-06-22T07:09:48;100964.22;;;29.73;60.44
75298;BME280;63896;45.990;18.688;2023-06-22T07:12:54;100954.78;;;30.00;59.48
75298;BME280;63896;45.990;18.688;2023-06-22T07:16:01;100951.59;;;30.40;58.37
75298;BME280;63896;45.990;18.688;2023-06-22T07:19:04;100948.09;;;30.60;57.67
75298;BME280;63896;45.990;18.688;2023-06-22T07:22:09;100938.63;;;31.92;53.57
75298;BME280;63896;45.990;18.688;2023-06-22T07:25:14;100934.28;;;32.03;53.13
75298;BME280;63896;45.990;18.688;2023-06-22T07:28:18;100934.34;;;32.43;51.97
75298;BME280;63896;45.990;18.688;2023-06-22T07:31:26;100928.34;;;32.93;51.21
75298;BME280;63896;45.990;18.688;2023-06-22T07:34:29;100929.97;;;33.10;50.56
75298;BME280;63896;45.990;18.688;2023-06-22T07:37:32;100932.56;;;34.13;48.24
75298;BME280;63896;45.990;18.688;2023-06-22T07:40:36;100933.47;;;32.95;50.68
75298;BME280;63896;45.990;18.688;2023-06-22T07:43:39;100932.00;;;32.70;51.37
75298;BME280;63896;45.990;18.688;2023-06-22T07:46:42;100929.44;;;32.77;51.65
75298;BME280;63896;45.990;18.688;2023-06-22T07:49:46;100932.78;;;32.18;53.15
75298;BME280;63896;45.990;18.688;2023-06-22T07:52:49;100933.53;;;33.70;50.15
75298;BME280;63896;45.990;18.688;2023-06-22T07:55:52;100926.88;;;33.71;49.72
75298;BME280;63896;45.990;18.688;2023-06-22T07:58:54;100931.34;;;34.29;48.60
75298;BME280;63896;45.990;18.688;2023-06-22T08:02:00;100922.16;;;34.41;47.76
75298;BME280;63896;45.990;18.688;2023-06-22T08:05:10;100923.69;;;34.58;47.08
75298;BME280;63896;45.990;18.688;2023-06-22T08:08:23;100927.41;;;34.65;47.47
75298;BME280;63896;45.990;18.688;2023-06-22T08:11:26;100914.84;;;35.52;44.89
75298;BME280;63896;45.990;18.688;2023-06-22T08:14:30;100918.22;;;35.19;46.09
75298;BME280;63896;45.990;18.688;2023-06-22T08:17:33;100918.84;;;35.31;45.58
75298;BME280;63896;45.990;18.688;2023-06-22T08:20:36;100916.09;;;36.63;42.59
75298;BME280;63896;45.990;18.688;2023-06-22T08:23:39;100919.59;;;36.93;41.67
75298;BME280;63896;45.990;18.688;2023-06-22T08:26:42;100904.34;;;38.08;39.53
75298;BME280;63896;45.990;18.688;2023-06-22T08:29:44;100907.53;;;38.07;39.37
75298;BME280;63896;45.990;18.688;2023-06-22T08:32:52;100911.66;;;37.29;41.37
75298;BME280;63896;45.990;18.688;2023-06-22T08:35:57;100917.56;;;38.36;38.77
75298;BME280;63896;45.990;18.688;2023-06-22T08:39:01;100912.75;;;38.19;39.26
75298;BME280;63896;45.990;18.688;2023-06-22T08:42:06;100921.66;;;38.60;38.36
75298;BME280;63896;45.990;18.688;2023-06-22T08:45:09;100910.69;;;39.17;37.38
75298;BME280;63896;45.990;18.688;2023-06-22T08:48:12;100914.19;;;38.85;37.38
75298;BME280;63896;45.990;18.688;2023-06-22T08:51:18;100921.25;;;38.58;38.33
75298;BME280;63896;45.990;18.688;2023-06-22T08:54:21;100912.31;;;39.78;36.41
75298;BME280;63896;45.990;18.688;2023-06-22T08:57:24;100913.44;;;39.06;36.79
75298;BME280;63896;45.990;18.688;2023-06-22T09:00:26;100902.75;;;39.65;36.26
75298;BME280;63896;45.990;18.688;2023-06-22T09:03:31;100902.41;;;39.31;36.30
75298;BME280;63896;45.990;18.688;2023-06-22T09:06:35;100902.00;;;39.50;35.31
75298;BME280;63896;45.990;18.688;2023-06-22T09:09:40;100900.00;;;39.61;35.25
75298;BME280;63896;45.990;18.688;2023-06-22T09:12:43;100886.47;;;39.70;35.12
75298;BME280;63896;45.990;18.688;2023-06-22T09:15:46;100888.06;;;39.89;36.16
75298;BME280;63896;45.990;18.688;2023-06-22T09:18:49;100889.69;;;39.33;36.91
75298;BME280;63896;45.990;18.688;2023-06-22T09:21:52;100879.78;;;39.46;35.59
75298;BME280;63896;45.990;18.688;2023-06-22T09:24:55;100874.69;;;40.53;34.02
75298;BME280;63896;45.990;18.688;2023-06-22T09:27:58;100873.78;;;38.95;36.70
75298;BME280;63896;45.990;18.688;2023-06-22T09:31:04;100877.28;;;38.78;37.27
75298;BME280;63896;45.990;18.688;2023-06-22T09:34:07;100879.91;;;38.39;38.21
75298;BME280;63896;45.990;18.688;2023-06-22T09:37:09;100867.88;;;37.45;40.16
75298;BME280;63896;45.990;18.688;2023-06-22T09:40:12;100865.44;;;39.80;35.53
75298;BME280;63896;45.990;18.688;2023-06-22T09:43:18;100860.53;;;40.96;33.40
75298;BME280;63896;45.990;18.688;2023-06-22T09:46:21;100857.13;;;38.98;36.08
75298;BME280;63896;45.990;18.688;2023-06-22T09:49:30;100858.69;;;37.88;39.63
75298;BME280;63896;45.990;18.688;2023-06-22T09:52:50;100860.59;;;40.02;34.71
75298;BME280;63896;45.990;18.688;2023-06-22T09:55:57;100854.53;;;41.04;32.31
75298;BME280;63896;45.990;18.688;2023-06-22T09:59:00;100854.75;;;39.36;35.10
75298;BME280;63896;45.990;18.688;2023-06-22T10:02:19;100849.94;;;39.82;34.07
75298;BME280;63896;45.990;18.688;2023-06-22T10:05:22;100844.38;;;38.69;35.38
75298;BME280;63896;45.990;18.688;2023-06-22T10:08:25;100842.03;;;39.63;33.45
75298;BME280;63896;45.990;18.688;2023-06-22T10:11:28;100849.06;;;40.07;33.01
75298;BME280;63896;45.990;18.688;2023-06-22T10:14:33;100845.25;;;39.16;34.98
75298;BME280;63896;45.990;18.688;2023-06-22T10:17:36;100843.25;;;39.27;33.99
75298;BME280;63896;45.990;18.688;2023-06-22T10:20:39;100849.25;;;37.96;36.78
75298;BME280;63896;45.990;18.688;2023-06-22T10:23:42;100841.66;;;39.04;35.03
75298;BME280;63896;45.990;18.688;2023-06-22T10:26:44;100836.00;;;40.76;31.67
75298;BME280;63896;45.990;18.688;2023-06-22T10:29:48;100840.00;;;40.75;32.43
75298;BME280;63896;45.990;18.688;2023-06-22T10:32:51;100845.38;;;42.23;29.60
75298;BME280;63896;45.990;18.688;2023-06-22T10:36:06;100840.75;;;41.31;30.89
75298;BME280;63896;45.990;18.688;2023-06-22T10:39:12;100844.78;;;42.05;30.54
75298;BME280;63896;45.990;18.688;2023-06-22T10:42:15;100837.16;;;41.71;30.83
75298;BME280;63896;45.990;18.688;2023-06-22T10:45:18;100835.13;;;42.43;29.90
75298;BME280;63896;45.990;18.688;2023-06-22T10:48:21;100834.53;;;39.11;34.91
75298;BME280;63896;45.990;18.688;2023-06-22T10:51:24;100840.59;;;38.08;36.62
75298;BME280;63896;45.990;18.688;2023-06-22T10:54:28;100836.25;;;38.07;37.23
75298;BME280;63896;45.990;18.688;2023-06-22T10:57:31;100823.44;;;39.11;35.57
75298;BME280;63896;45.990;18.688;2023-06-22T11:00:34;100823.28;;;40.75;33.00
75298;BME280;63896;45.990;18.688;2023-06-22T11:03:37;100827.25;;;42.04;30.81
75298;BME280;63896;45.990;18.688;2023-06-22T11:06:40;100820.03;;;42.07;30.52
75298;BME280;63896;45.990;18.688;2023-06-22T11:09:43;100820.97;;;41.18;31.73
75298;BME280;63896;45.990;18.688;2023-06-22T11:12:46;100812.47;;;41.36;31.30
75298;BME280;63896;45.990;18.688;2023-06-22T11:15:49;100823.41;;;39.46;34.22
75298;BME280;63896;45.990;18.688;2023-06-22T11:18:52;100810.31;;;39.36;34.39
75298;BME280;63896;45.990;18.688;2023-06-22T11:21:54;100812.16;;;39.99;33.67
75298;BME280;63896;45.990;18.688;2023-06-22T11:24:57;100811.56;;;40.43;32.62
75298;BME280;63896;45.990;18.688;2023-06-22T11:28:03;100811.81;;;41.18;31.85
75298;BME280;63896;45.990;18.688;2023-06-22T11:31:06;100808.59;;;40.71;32.06
75298;BME280;63896;45.990;18.688;2023-06-22T11:34:26;100811.03;;;38.48;35.10
75298;BME280;63896;45.990;18.688;2023-06-22T11:37:31;100803.16;;;39.52;34.32
75298;BME280;63896;45.990;18.688;2023-06-22T11:40:33;100813.88;;;39.54;34.31
75298;BME280;63896;45.990;18.688;2023-06-22T11:43:39;100807.28;;;40.24;33.73
75298;BME280;63896;45.990;18.688;2023-06-22T11:46:42;100804.75;;;38.83;35.42
75298;BME280;63896;45.990;18.688;2023-06-22T11:49:45;100805.53;;;37.65;37.24
75298;BME280;63896;45.990;18.688;2023-06-22T11:52:48;100804.72;;;37.61;38.00
75298;BME280;63896;45.990;18.688;2023-06-22T11:55:51;100798.66;;;38.21;37.20
75298;BME280;63896;45.990;18.688;2023-06-22T11:58:55;100803.47;;;38.38;36.55
75298;BME280;63896;45.990;18.688;2023-06-22T12:01:57;100790.03;;;39.60;34.41
75298;BME280;63896;45.990;18.688;2023-06-22T12:05:01;100790.06;;;38.79;35.96
75298;BME280;63896;45.990;18.688;2023-06-22T12:08:07;100796.44;;;38.97;35.59
75298;BME280;63896;45.990;18.688;2023-06-22T12:11:10;100782.03;;;39.83;34.00
75298;BME280;63896;45.990;18.688;2023-06-22T12:14:13;100782.34;;;40.07;33.11
75298;BME280;63896;45.990;18.688;2023-06-22T12:17:15;100778.00;;;39.98;33.89
75298;BME280;63896;45.990;18.688;2023-06-22T12:20:19;100776.19;;;38.79;36.01
75298;BME280;63896;45.990;18.688;2023-06-22T12:23:21;100774.66;;;38.99;35.11
75298;BME280;63896;45.990;18.688;2023-06-22T12:26:24;100767.94;;;40.29;32.90
75298;BME280;63896;45.990;18.688;2023-06-22T12:29:27;100770.28;;;39.16;34.14
75298;BME280;63896;45.990;18.688;2023-06-22T12:32:30;100762.06;;;40.06;33.20
75298;BME280;63896;45.990;18.688;2023-06-22T12:35:33;100771.03;;;38.74;35.46
75298;BME280;63896;45.990;18.688;2023-06-22T12:38:35;100767.31;;;38.02;35.61
75298;BME280;63896;45.990;18.688;2023-06-22T12:41:38;100771.56;;;37.17;36.76
75298;BME280;63896;45.990;18.688;2023-06-22T12:44:41;100765.25;;;37.20;37.38
75298;BME280;63896;45.990;18.688;2023-06-22T12:47:44;100764.44;;;37.16;37.34
75298;BME280;63896;45.990;18.688;2023-06-22T12:50:47;100766.59;;;37.44;36.42
75298;BME280;63896;45.990;18.688;2023-06-22T12:53:50;100763.16;;;35.62;40.21
75298;BME280;63896;45.990;18.688;2023-06-22T12:56:53;100758.09;;;35.64;40.79
75298;BME280;63896;45.990;18.688;2023-06-22T12:59:57;100760.91;;;37.88;35.68
75298;BME280;63896;45.990;18.688;2023-06-22T13:03:02;100750.88;;;38.84;34.10
75298;BME280;63896;45.990;18.688;2023-06-22T13:06:05;100741.75;;;40.13;32.33
75298;BME280;63896;45.990;18.688;2023-06-22T13:09:10;100736.56;;;38.78;33.74
75298;BME280;63896;45.990;18.688;2023-06-22T13:12:15;100732.97;;;38.74;34.11
75298;BME280;63896;45.990;18.688;2023-06-22T13:15:18;100720.69;;;38.50;35.34
75298;BME280;63896;45.990;18.688;2023-06-22T13:18:21;100728.06;;;37.14;36.11
75298;BME280;63896;45.990;18.688;2023-06-22T13:21:23;100718.59;;;36.30;38.13
75298;BME280;63896;45.990;18.688;2023-06-22T13:24:26;100722.53;;;37.14;37.47
75298;BME280;63896;45.990;18.688;2023-06-22T13:27:29;100718.66;;;37.29;36.51
75298;BME280;63896;45.990;18.688;2023-06-22T13:30:32;100719.59;;;36.12;38.76
75298;BME280;63896;45.990;18.688;2023-06-22T13:33:35;100719.78;;;36.70;37.75
75298;BME280;63896;45.990;18.688;2023-06-22T13:36:38;100710.66;;;37.13;37.00
75298;BME280;63896;45.990;18.688;2023-06-22T13:39:41;100716.94;;;36.59;36.99
75298;BME280;63896;45.990;18.688;2023-06-22T13:42:44;100720.44;;;36.56;38.14
75298;BME280;63896;45.990;18.688;2023-06-22T13:45:47;100714.09;;;36.15;38.59
75298;BME280;63896;45.990;18.688;2023-06-22T13:48:49;100706.84;;;36.04;39.67
75298;BME280;63896;45.990;18.688;2023-06-22T13:51:52;100709.94;;;35.95;39.44
75298;BME280;63896;45.990;18.688;2023-06-22T13:54:55;100700.41;;;35.93;39.25
75298;BME280;63896;45.990;18.688;2023-06-22T13:57:58;100701.09;;;36.16;39.83
75298;BME280;63896;45.990;18.688;2023-06-22T14:01:01;100699.72;;;35.99;39.06
75298;BME280;63896;45.990;18.688;2023-06-22T14:04:03;100692.78;;;36.16;39.11
75298;BME280;63896;45.990;18.688;2023-06-22T14:07:07;100692.44;;;35.24;40.86
75298;BME280;63896;45.990;18.688;2023-06-22T14:10:09;100687.91;;;35.13;40.62
75298;BME280;63896;45.990;18.688;2023-06-22T14:13:12;100693.31;;;34.79;42.31
75298;BME280;63896;45.990;18.688;2023-06-22T14:16:15;100690.38;;;34.95;41.74
75298;BME280;63896;45.990;18.688;2023-06-22T14:19:18;100697.53;;;35.52;41.29
75298;BME280;63896;45.990;18.688;2023-06-22T14:22:21;100688.81;;;35.20;41.13
75298;BME280;63896;45.990;18.688;2023-06-22T14:25:24;100687.06;;;35.65;40.17
75298;BME280;63896;45.990;18.688;2023-06-22T14:28:27;100683.75;;;34.73;42.19
75298;BME280;63896;45.990;18.688;2023-06-22T14:31:30;100678.72;;;35.05;41.64
75298;BME280;63896;45.990;18.688;2023-06-22T14:34:33;100673.56;;;35.30;40.67
75298;BME280;63896;45.990;18.688;2023-06-22T14:37:38;100683.06;;;34.57;42.67
75298;BME280;63896;45.990;18.688;2023-06-22T14:40:41;100677.50;;;34.76;43.38
75298;BME280;63896;45.990;18.688;2023-06-22T14:44:03;100667.19;;;35.52;41.30
75298;BME280;63896;45.990;18.688;2023-06-22T14:47:07;100672.56;;;35.71;40.27
75298;BME280;63896;45.990;18.688;2023-06-22T14:50:10;100671.19;;;35.58;41.00
75298;BME280;63896;45.990;18.688;2023-06-22T14:53:13;100667.97;;;35.53;40.96
75298;BME280;63896;45.990;18.688;2023-06-22T14:56:16;100665.50;;;34.91;42.31
75298;BME280;63896;45.990;18.688;2023-06-22T14:59:19;100655.31;;;34.69;42.28
75298;BME280;63896;45.990;18.688;2023-06-22T15:02:22;100652.94;;;34.45;43.96
75298;BME280;63896;45.990;18.688;2023-06-22T15:05:25;100659.03;;;34.80;43.22
75298;BME280;63896;45.990;18.688;2023-06-22T15:08:28;100662.44;;;35.23;42.32
75298;BME280;63896;45.990;18.688;2023-06-22T15:11:31;100650.59;;;34.70;43.15
75298;BME280;63896;45.990;18.688;2023-06-22T15:14:36;100649.91;;;34.76;43.40
75298;BME280;63896;45.990;18.688;2023-06-22T15:17:39;100646.53;;;34.86;44.35
75298;BME280;63896;45.990;18.688;2023-06-22T15:20:42;100648.16;;;34.65;45.69
75298;BME280;63896;45.990;18.688;2023-06-22T15:23:47;100640.47;;;34.77;45.58
75298;BME280;63896;45.990;18.688;2023-06-22T15:26:50;100639.00;;;34.83;44.73
75298;BME280;63896;45.990;18.688;2023-06-22T15:29:53;100636.16;;;34.31;46.63
75298;BME280;63896;45.990;18.688;2023-06-22T15:32:57;100637.38;;;34.33;46.99
75298;BME280;63896;45.990;18.688;2023-06-22T15:36:02;100636.88;;;34.05;47.37
75298;BME280;63896;45.990;18.688;2023-06-22T15:39:07;100639.53;;;34.21;47.56
75298;BME280;63896;45.990;18.688;2023-06-22T15:42:09;100632.16;;;34.06;48.83
75298;BME280;63896;45.990;18.688;2023-06-22T15:45:13;100632.13;;;33.83;49.29
75298;BME280;63896;45.990;18.688;2023-06-22T15:48:15;100643.59;;;33.66;49.55
75298;BME280;63896;45.990;18.688;2023-06-22T15:51:18;100635.91;;;33.75;48.98